Ana Sayfa
METAR-TAF:

METAR-TAF

Havaalanları :

Wasilla, Alaska, Amerika Birleşik Devletleri

Enlem: 61-34-19N, Boylam: 149-32-26W, yükseklik: 106 m

Güncel hava durumu gözlemi

Rapor saat 22:56 UTC de 42 dakika önce yapıldı.
Rüzgar doğu/güneydoğudan 6 kt
Sıcaklık 14°C
Nem 18%
Basınç 1012 hPa
Görüş mesafesi: 16.1 km
Açık gökyüzü

METAR: PAWS 202256Z AUTO 12006KT 10SM CLR 14/M10 A2988 RMK AO2 SLP121 T01441100

Saat: 15:38 (23:38 UTC)


TAF: eksik

4.000'den fazla havaalanı için hava durumu gözlemleri ve tahminleri (METAR ve TAF raporları).

Kullanılabilir istasyonlar harita üzerinde sarı ve kırmızı noktalarla gösterilir.

İstasyonun adını görmek için fareyi noktanın üzerinde gezdirin.

Sonrasında hava gözlem ve tahminlerini görmek için tıklayın.

Haritayı değiştirmek için: yaklaştırmak için siyah artı işaretli yeşil düğmeye ve uzaklaştırmak için de eksi işaretli düğmeye hızla tıklayın; bitişik haritalar için yeşil okları kullanın.


METAR-TAF: